AirNav   Air Wisconsin Up To $57,000 Bonus
 
 1617 users online  

WN65 My Airport
Elma, Washington, USA

GOING TO ELMA?


FAA INFORMATION EFFECTIVE 04 NOVEMBER 2021

Location

FAA Identifier: WN65
Lat/Long: 46-58-21.3460N 123-28-36.5790W
46-58.355767N 123-28.609650W
46.9725961,-123.4768275
(estimated)
Elevation: 80 ft. / 24 m (estimated)
Variation: 21E (1980)
From city: 8 miles SW of ELMA, WA
Time zone: UTC -7 (UTC -8 during Standard Time)
Zip code: 98541

Airport Operations

Airport use: Private use. Permission required prior to landing
Activation date: 01/1986
Control tower: no
ARTCC: SEATTLE CENTER
FSS: SEATTLE FLIGHT SERVICE STATION
Attendance: UNATNDD
Segmented circle: no

Airport Communications

WX ASOS at HQM (19 nm W): 135.775 (360-538-7021)

Nearby radio navigation aids

VOR radial/distance  VOR name  Freq  Var
OLMr251/23.5OLYMPIA VORTAC113.4019E
HQMr068/27.6HOQUIAM VORTAC117.7019E

Airport Services

Runway Information

Runway 9/27

Dimensions: 1400 x 60 ft. / 427 x 18 m
Surface: asphalt/treated, in poor condition
RY 09/27 ASPH CONDITION POOR DUE TO CRUMBLY CHIP SEAL.
RUNWAY 9  RUNWAY 27
Traffic pattern: leftleft
Obstructions: none100 ft. trees, 300 ft. from runway

Airport Ownership and Management from official FAA records

Ownership: Privately-owned
Owner: MARK & CAROL DEMEERLEER
PO BOX 3333
MCCLEARY, WA 98557
Phone 360-495-0011
Manager: 245 NORTH MIDDLESEX ROAD
PO BOX 3333
MCCLEARY, WA 98557
Phone 360-495-0011

Airport Operational Statistics

Aircraft based on the field: 2
Single engine airplanes: 2
    

Additional Remarks

FOR CD CTC SEATTLE ARTCC AT 253-351-3694.

Instrument Procedures

There are no published instrument procedures at WN65.

Some nearby airports with instrument procedures:

KHQM - Bowerman Airport (19 nm W)
KSHN - Sanderson Field Airport (21 nm NE)
KOLM - Olympia Regional Airport (24 nm E)
KCLS - Chehalis-Centralia Airport (27 nm SE)
KGRF - Gray Army Airfield (Joint Base Lewis-McChord) (37 nm E)
 
Loc | Ops | Rwys | IFR | FBO | Links
Com | Nav | Svcs | Stats | Notes
Area around WN65 (My Airport)
 
Road maps at: MapQuest Bing Google
 
Aerial photo
No photo
 
Sectional chart

 
Airport distance calculator
Flying to My Airport? Find the distance to fly.

From to WN65

Sunrise and sunset
Times for 29-Nov-2021
 Local
(UTC-8)
 Zulu
(UTC)
Morning civil twilight07:0315:03
Sunrise07:3815:38
Sunset16:2700:27
Evening civil twilight17:0201:02

Current date and time
Zulu (UTC)  30-Nov-2021 00:41:35
Local (UTC-8)  29-Nov-2021 16:41:35
 
METAR
KHQM 
19nm W 
300010Z AUTO 23005KT 1 1/2SM BR OVC005 13/12 A3022 RMK AO2 T01280117
KSHN 
21nm NE 
292353Z AUTO 00000KT 10SM FEW016 SCT029 BKN055 13/12 A3021 RMK AO2 SLP232 60000 T01280122 10139 20122 58002
KOLM 
24nm E 
292354Z 00000KT 10SM FEW028 SCT045 13/11 A3025 RMK AO2 SLP242 T01330106 10144 20122 55004
KCLS 
27nm SE 
300015Z AUTO 19004KT 10SM BKN034 OVC041 14/12 A3025 RMK AO2
TAF
KHQM 
19nm W 
300019Z 3000/3024 23005KT 2SM BR OVC005 FM300900 20004KT P6SM OVC008 FM301200 16009KT P6SM VCSH OVC015 FM301500 18012G18KT 4SM -RA BR OVC008
NOTAMs
Click for the latest NOTAMs
NOTAMs are issued by the DoD/FAA and will open in a separate window not controlled by AirNav.

 

 
 

Would you like to see your business listed on this page?

 If your business provides an interesting product or service to pilots, flight crews, aircraft, or users of the My Airport, you should consider listing it here.  To start the listing process, click on the button below
 
Add a business
 

Other Pages about My Airport

Update a link
 
Copyright © AirNav, LLC. All rights reserved. Privacy Policy  Contact